Etusivu
METAR-TAF:

METAR-TAF

Lentoasemat :

Hearne Municipal Airport

Hearne, Texas, Yhdysvallat

Leveyspiiri: 30-52-18N, Pituuspiiri: 096-37-20W, korkeus merenpinnasta: 87 m

Tämänhetkinen sää

Tämä raportti tehtiin 25 minuuttia sitten, kello 22.55 UTC
Tuuli 5 kn idästä
Lämpötila 35°C
Kosteus 47%
Ilmanpaine 1015 hPa
Näkyvyys: 16.1 km
Hajonneita pilviä 6500 ft:n korkeudessa
Pilvistä 7500 ft:n korkeudessa

METAR: KLHB 172255Z AUTO 09005KT 10SM BKN065 OVC075 35/22 A2996 RMK AO2 LTG DSNT SE T03500224

Aika: 18:20 (23:20 UTC)


TAF: puuttuu

Säähavainnot ja -ennusteet yli 4000 lentoasemalta (METAR- ja TAF-raportit).

Käytössä olevat sääasemat on merkitty karttaan keltaisilla ja punaisilla pisteillä.

Aseta hiiri pisteen päälle nähdäksesi sääaseman nimen.

Klikkaa sitten nähdäksesi säähavainnot ja -ennusteet.

Kartan vaihtaminen: klikkaa mustalla rastilla varustettuja vihreitä pisteitä, niin voit zoomata sisään; viivalla varustettua vihreää pistettä, niin voit zoomata ulos tai vihreitä nuolia, niin pääset viereisille kartoille.


METAR-TAF: